sensor_id;sensor_type;location;lat;lon;timestamp;temperature;humidity
13436;DHT22;6790;49.520;8.504;2023-11-19T00:00:22;8.80;99.90
13436;DHT22;6790;49.520;8.504;2023-11-19T00:02:49;9.00;99.90
13436;DHT22;6790;49.520;8.504;2023-11-19T00:05:14;9.00;99.90
13436;DHT22;6790;49.520;8.504;2023-11-19T00:07:40;9.00;99.90
13436;DHT22;6790;49.520;8.504;2023-11-19T00:10:10;9.10;99.90
13436;DHT22;6790;49.520;8.504;2023-11-19T00:12:42;8.90;99.90
13436;DHT22;6790;49.520;8.504;2023-11-19T00:15:10;8.90;99.90
13436;DHT22;6790;49.520;8.504;2023-11-19T00:17:42;9.10;99.90
13436;DHT22;6790;49.520;8.504;2023-11-19T00:20:11;9.10;99.90
13436;DHT22;6790;49.520;8.504;2023-11-19T00:22:38;9.00;99.90
13436;DHT22;6790;49.520;8.504;2023-11-19T00:25:04;8.90;99.90
13436;DHT22;6790;49.520;8.504;2023-11-19T00:27:31;8.90;99.90
13436;DHT22;6790;49.520;8.504;2023-11-19T00:29:57;9.10;99.90
13436;DHT22;6790;49.520;8.504;2023-11-19T00:32:23;8.90;99.90
13436;DHT22;6790;49.520;8.504;2023-11-19T00:34:48;8.90;99.90
13436;DHT22;6790;49.520;8.504;2023-11-19T00:37:15;8.90;99.90
13436;DHT22;6790;49.520;8.504;2023-11-19T00:39:41;8.90;99.90
13436;DHT22;6790;49.520;8.504;2023-11-19T00:42:09;9.10;99.90
13436;DHT22;6790;49.520;8.504;2023-11-19T00:44:36;9.30;99.90
13436;DHT22;6790;49.520;8.504;2023-11-19T00:47:01;9.30;99.90
13436;DHT22;6790;49.520;8.504;2023-11-19T00:49:27;9.20;99.90
13436;DHT22;6790;49.520;8.504;2023-11-19T00:51:53;9.00;99.90
13436;DHT22;6790;49.520;8.504;2023-11-19T00:54:19;9.20;99.90
13436;DHT22;6790;49.520;8.504;2023-11-19T00:56:44;9.00;99.90
13436;DHT22;6790;49.520;8.504;2023-11-19T00:59:10;9.30;99.90
13436;DHT22;6790;49.520;8.504;2023-11-19T01:01:36;9.20;99.90
13436;DHT22;6790;49.520;8.504;2023-11-19T01:04:02;9.30;99.90
13436;DHT22;6790;49.520;8.504;2023-11-19T01:06:30;9.10;99.90
13436;DHT22;6790;49.520;8.504;2023-11-19T01:08:57;9.30;99.90
13436;DHT22;6790;49.520;8.504;2023-11-19T01:11:23;9.10;99.90
13436;DHT22;6790;49.520;8.504;2023-11-19T01:13:49;9.10;99.90
13436;DHT22;6790;49.520;8.504;2023-11-19T01:16:15;9.30;99.90
13436;DHT22;6790;49.520;8.504;2023-11-19T01:18:41;9.10;99.90
13436;DHT22;6790;49.520;8.504;2023-11-19T01:21:07;9.40;99.90
13436;DHT22;6790;49.520;8.504;2023-11-19T01:23:34;9.40;99.90
13436;DHT22;6790;49.520;8.504;2023-11-19T01:26:00;9.30;99.90
13436;DHT22;6790;49.520;8.504;2023-11-19T01:28:26;9.40;99.90
13436;DHT22;6790;49.520;8.504;2023-11-19T01:30:52;9.50;99.90
13436;DHT22;6790;49.520;8.504;2023-11-19T01:33:18;9.30;99.90
13436;DHT22;6790;49.520;8.504;2023-11-19T01:35:43;9.20;99.90
13436;DHT22;6790;49.520;8.504;2023-11-19T01:38:09;9.20;99.90
13436;DHT22;6790;49.520;8.504;2023-11-19T01:40:35;9.30;99.90
13436;DHT22;6790;49.520;8.504;2023-11-19T01:43:04;9.20;99.90
13436;DHT22;6790;49.520;8.504;2023-11-19T01:45:30;9.20;99.90
13436;DHT22;6790;49.520;8.504;2023-11-19T01:47:57;9.20;99.90
13436;DHT22;6790;49.520;8.504;2023-11-19T01:50:24;9.20;99.90
13436;DHT22;6790;49.520;8.504;2023-11-19T01:52:54;9.40;99.90
13436;DHT22;6790;49.520;8.504;2023-11-19T01:55:24;9.50;99.90
13436;DHT22;6790;49.520;8.504;2023-11-19T01:57:53;9.50;99.90
13436;DHT22;6790;49.520;8.504;2023-11-19T02:00:21;9.50;99.90
13436;DHT22;6790;49.520;8.504;2023-11-19T02:02:48;9.60;99.90
13436;DHT22;6790;49.520;8.504;2023-11-19T02:05:14;9.50;99.90
13436;DHT22;6790;49.520;8.504;2023-11-19T02:07:39;9.30;99.90
13436;DHT22;6790;49.520;8.504;2023-11-19T02:10:06;9.50;99.90
13436;DHT22;6790;49.520;8.504;2023-11-19T02:12:38;9.30;99.90
13436;DHT22;6790;49.520;8.504;2023-11-19T02:15:09;9.50;99.90
13436;DHT22;6790;49.520;8.504;2023-11-19T02:17:35;9.30;99.90
13436;DHT22;6790;49.520;8.504;2023-11-19T02:20:03;9.30;99.90
13436;DHT22;6790;49.520;8.504;2023-11-19T02:22:37;9.30;99.90
13436;DHT22;6790;49.520;8.504;2023-11-19T02:25:17;9.60;99.90
13436;DHT22;6790;49.520;8.504;2023-11-19T02:27:53;9.50;99.90
13436;DHT22;6790;49.520;8.504;2023-11-19T02:30:23;9.50;99.90
13436;DHT22;6790;49.520;8.504;2023-11-19T02:32:53;9.40;99.90
13436;DHT22;6790;49.520;8.504;2023-11-19T02:35:19;9.70;99.90
13436;DHT22;6790;49.520;8.504;2023-11-19T02:37:47;9.70;99.90
13436;DHT22;6790;49.520;8.504;2023-11-19T02:40:13;9.50;99.90
13436;DHT22;6790;49.520;8.504;2023-11-19T02:42:39;9.80;99.90
13436;DHT22;6790;49.520;8.504;2023-11-19T02:45:05;9.50;99.90
13436;DHT22;6790;49.520;8.504;2023-11-19T02:47:33;9.80;99.90
13436;DHT22;6790;49.520;8.504;2023-11-19T02:49:59;9.60;99.90
13436;DHT22;6790;49.520;8.504;2023-11-19T02:52:25;9.60;99.90
13436;DHT22;6790;49.520;8.504;2023-11-19T02:54:51;9.60;99.90
13436;DHT22;6790;49.520;8.504;2023-11-19T02:57:17;9.60;99.90
13436;DHT22;6790;49.520;8.504;2023-11-19T02:59:46;9.60;99.90
13436;DHT22;6790;49.520;8.504;2023-11-19T03:02:12;9.60;99.90
13436;DHT22;6790;49.520;8.504;2023-11-19T03:04:38;9.70;99.90
13436;DHT22;6790;49.520;8.504;2023-11-19T03:07:05;9.90;99.90
13436;DHT22;6790;49.520;8.504;2023-11-19T03:09:32;9.80;99.90
13436;DHT22;6790;49.520;8.504;2023-11-19T03:12:00;9.80;99.90
13436;DHT22;6790;49.520;8.504;2023-11-19T03:14:25;9.70;99.90
13436;DHT22;6790;49.520;8.504;2023-11-19T03:16:51;10.00;99.90
13436;DHT22;6790;49.520;8.504;2023-11-19T03:19:17;10.10;99.90
13436;DHT22;6790;49.520;8.504;2023-11-19T03:21:43;9.80;99.90
13436;DHT22;6790;49.520;8.504;2023-11-19T03:24:10;9.80;99.90
13436;DHT22;6790;49.520;8.504;2023-11-19T03:26:37;9.90;99.90
13436;DHT22;6790;49.520;8.504;2023-11-19T03:29:03;10.10;99.90
13436;DHT22;6790;49.520;8.504;2023-11-19T03:31:29;9.90;99.90
13436;DHT22;6790;49.520;8.504;2023-11-19T03:33:55;10.10;99.90
13436;DHT22;6790;49.520;8.504;2023-11-19T03:36:20;9.90;99.90
13436;DHT22;6790;49.520;8.504;2023-11-19T03:38:46;10.10;99.90
13436;DHT22;6790;49.520;8.504;2023-11-19T03:41:12;10.20;99.90
13436;DHT22;6790;49.520;8.504;2023-11-19T03:43:39;10.00;99.90
13436;DHT22;6790;49.520;8.504;2023-11-19T03:46:15;10.30;99.90
13436;DHT22;6790;49.520;8.504;2023-11-19T03:48:42;10.00;99.90
13436;DHT22;6790;49.520;8.504;2023-11-19T03:51:08;10.10;99.90
13436;DHT22;6790;49.520;8.504;2023-11-19T03:53:34;10.00;99.90
13436;DHT22;6790;49.520;8.504;2023-11-19T03:56:01;10.30;99.90
13436;DHT22;6790;49.520;8.504;2023-11-19T03:58:26;10.10;99.90
13436;DHT22;6790;49.520;8.504;2023-11-19T04:00:52;10.40;99.90
13436;DHT22;6790;49.520;8.504;2023-11-19T04:03:18;10.20;99.90
13436;DHT22;6790;49.520;8.504;2023-11-19T04:05:45;10.20;99.90
13436;DHT22;6790;49.520;8.504;2023-11-19T04:08:10;10.20;99.90
13436;DHT22;6790;49.520;8.504;2023-11-19T04:10:36;10.50;99.90
13436;DHT22;6790;49.520;8.504;2023-11-19T04:13:02;10.20;99.90
13436;DHT22;6790;49.520;8.504;2023-11-19T04:15:27;10.20;99.90
13436;DHT22;6790;49.520;8.504;2023-11-19T04:17:53;10.40;99.90
13436;DHT22;6790;49.520;8.504;2023-11-19T04:20:19;10.50;99.90
13436;DHT22;6790;49.520;8.504;2023-11-19T04:22:47;10.40;99.90
13436;DHT22;6790;49.520;8.504;2023-11-19T04:25:13;10.40;99.90
13436;DHT22;6790;49.520;8.504;2023-11-19T04:27:40;10.60;99.90
13436;DHT22;6790;49.520;8.504;2023-11-19T04:30:06;10.40;99.90
13436;DHT22;6790;49.520;8.504;2023-11-19T04:32:35;10.70;99.90
13436;DHT22;6790;49.520;8.504;2023-11-19T04:35:01;10.70;99.90
13436;DHT22;6790;49.520;8.504;2023-11-19T04:37:26;10.50;99.90
13436;DHT22;6790;49.520;8.504;2023-11-19T04:39:52;10.70;99.90
13436;DHT22;6790;49.520;8.504;2023-11-19T04:42:18;10.70;99.90
13436;DHT22;6790;49.520;8.504;2023-11-19T04:44:44;10.50;99.90
13436;DHT22;6790;49.520;8.504;2023-11-19T04:47:09;10.60;99.90
13436;DHT22;6790;49.520;8.504;2023-11-19T04:49:40;10.70;99.90
13436;DHT22;6790;49.520;8.504;2023-11-19T04:52:08;10.80;99.90
13436;DHT22;6790;49.520;8.504;2023-11-19T04:54:34;10.60;99.90
13436;DHT22;6790;49.520;8.504;2023-11-19T04:57:00;11.00;99.90
13436;DHT22;6790;49.520;8.504;2023-11-19T04:59:25;10.70;99.90
13436;DHT22;6790;49.520;8.504;2023-11-19T05:01:52;10.70;99.90
13436;DHT22;6790;49.520;8.504;2023-11-19T05:04:18;10.70;99.90
13436;DHT22;6790;49.520;8.504;2023-11-19T05:06:44;10.80;99.90
13436;DHT22;6790;49.520;8.504;2023-11-19T05:09:10;10.80;99.90
13436;DHT22;6790;49.520;8.504;2023-11-19T05:11:38;10.70;99.90
13436;DHT22;6790;49.520;8.504;2023-11-19T05:14:05;11.00;99.90
13436;DHT22;6790;49.520;8.504;2023-11-19T05:16:31;10.80;99.90
13436;DHT22;6790;49.520;8.504;2023-11-19T05:18:57;10.90;99.90
13436;DHT22;6790;49.520;8.504;2023-11-19T05:21:22;10.90;99.90
13436;DHT22;6790;49.520;8.504;2023-11-19T05:23:49;11.20;99.90
13436;DHT22;6790;49.520;8.504;2023-11-19T05:26:22;11.10;99.90
13436;DHT22;6790;49.520;8.504;2023-11-19T05:28:48;11.00;99.90
13436;DHT22;6790;49.520;8.504;2023-11-19T05:31:14;11.00;99.90
13436;DHT22;6790;49.520;8.504;2023-11-19T05:33:39;11.30;99.90
13436;DHT22;6790;49.520;8.504;2023-11-19T05:36:05;11.10;99.90
13436;DHT22;6790;49.520;8.504;2023-11-19T05:38:34;11.10;99.90
13436;DHT22;6790;49.520;8.504;2023-11-19T05:41:00;11.20;99.90
13436;DHT22;6790;49.520;8.504;2023-11-19T05:43:26;11.10;99.90
13436;DHT22;6790;49.520;8.504;2023-11-19T05:45:51;11.40;99.90
13436;DHT22;6790;49.520;8.504;2023-11-19T05:48:17;11.40;99.90
13436;DHT22;6790;49.520;8.504;2023-11-19T05:50:43;11.40;99.90
13436;DHT22;6790;49.520;8.504;2023-11-19T05:53:09;11.50;99.90
13436;DHT22;6790;49.520;8.504;2023-11-19T05:55:36;11.30;99.90
13436;DHT22;6790;49.520;8.504;2023-11-19T05:58:10;11.30;99.90
13436;DHT22;6790;49.520;8.504;2023-11-19T06:00:40;11.20;99.90
13436;DHT22;6790;49.520;8.504;2023-11-19T06:03:09;11.20;99.90
13436;DHT22;6790;49.520;8.504;2023-11-19T06:05:35;11.50;99.90
13436;DHT22;6790;49.520;8.504;2023-11-19T06:08:01;11.30;99.90
13436;DHT22;6790;49.520;8.504;2023-11-19T06:10:27;11.20;99.90
13436;DHT22;6790;49.520;8.504;2023-11-19T06:12:59;11.60;99.90
13436;DHT22;6790;49.520;8.504;2023-11-19T06:15:28;11.50;99.90
13436;DHT22;6790;49.520;8.504;2023-11-19T06:17:54;11.30;99.90
13436;DHT22;6790;49.520;8.504;2023-11-19T06:20:20;11.50;99.90
13436;DHT22;6790;49.520;8.504;2023-11-19T06:22:46;11.50;99.90
13436;DHT22;6790;49.520;8.504;2023-11-19T06:25:12;11.40;99.90
13436;DHT22;6790;49.520;8.504;2023-11-19T06:27:40;11.60;99.90
13436;DHT22;6790;49.520;8.504;2023-11-19T06:30:07;11.60;99.90
13436;DHT22;6790;49.520;8.504;2023-11-19T06:32:34;11.50;99.90
13436;DHT22;6790;49.520;8.504;2023-11-19T06:34:59;11.60;99.90
13436;DHT22;6790;49.520;8.504;2023-11-19T06:37:25;11.60;99.90
13436;DHT22;6790;49.520;8.504;2023-11-19T06:39:52;11.70;99.90
13436;DHT22;6790;49.520;8.504;2023-11-19T06:42:18;11.70;99.90
13436;DHT22;6790;49.520;8.504;2023-11-19T06:44:43;11.80;99.90
13436;DHT22;6790;49.520;8.504;2023-11-19T06:47:09;11.70;99.90
13436;DHT22;6790;49.520;8.504;2023-11-19T06:49:35;11.50;99.90
13436;DHT22;6790;49.520;8.504;2023-11-19T06:52:00;11.50;99.90
13436;DHT22;6790;49.520;8.504;2023-11-19T06:54:26;11.50;99.90
13436;DHT22;6790;49.520;8.504;2023-11-19T06:56:52;11.80;99.90
13436;DHT22;6790;49.520;8.504;2023-11-19T06:59:18;11.50;99.90
13436;DHT22;6790;49.520;8.504;2023-11-19T07:01:44;11.40;99.90
13436;DHT22;6790;49.520;8.504;2023-11-19T07:04:13;11.60;99.90
13436;DHT22;6790;49.520;8.504;2023-11-19T07:06:39;11.30;99.90
13436;DHT22;6790;49.520;8.504;2023-11-19T07:09:06;11.70;99.90
13436;DHT22;6790;49.520;8.504;2023-11-19T07:11:37;11.60;99.90
13436;DHT22;6790;49.520;8.504;2023-11-19T07:14:09;11.50;99.90
13436;DHT22;6790;49.520;8.504;2023-11-19T07:16:35;11.50;99.90
13436;DHT22;6790;49.520;8.504;2023-11-19T07:19:07;11.60;99.90
13436;DHT22;6790;49.520;8.504;2023-11-19T07:21:33;11.80;99.90
13436;DHT22;6790;49.520;8.504;2023-11-19T07:23:59;11.80;99.90
13436;DHT22;6790;49.520;8.504;2023-11-19T07:26:25;11.70;99.90
13436;DHT22;6790;49.520;8.504;2023-11-19T07:28:52;11.80;99.90
13436;DHT22;6790;49.520;8.504;2023-11-19T07:31:18;11.50;99.90
13436;DHT22;6790;49.520;8.504;2023-11-19T07:33:45;11.50;99.90
13436;DHT22;6790;49.520;8.504;2023-11-19T07:36:12;11.70;99.90
13436;DHT22;6790;49.520;8.504;2023-11-19T07:38:38;11.80;99.90
13436;DHT22;6790;49.520;8.504;2023-11-19T07:41:05;11.80;99.90
13436;DHT22;6790;49.520;8.504;2023-11-19T07:43:31;11.90;99.90
13436;DHT22;6790;49.520;8.504;2023-11-19T07:45:56;11.70;99.90
13436;DHT22;6790;49.520;8.504;2023-11-19T07:48:25;11.70;99.90
13436;DHT22;6790;49.520;8.504;2023-11-19T07:50:52;11.90;99.90
13436;DHT22;6790;49.520;8.504;2023-11-19T07:53:19;12.00;99.90
13436;DHT22;6790;49.520;8.504;2023-11-19T07:55:45;12.00;99.90
13436;DHT22;6790;49.520;8.504;2023-11-19T07:58:12;12.00;99.90
13436;DHT22;6790;49.520;8.504;2023-11-19T08:00:37;11.90;99.90
13436;DHT22;6790;49.520;8.504;2023-11-19T08:03:04;12.00;99.90
13436;DHT22;6790;49.520;8.504;2023-11-19T08:05:31;12.10;99.90
13436;DHT22;6790;49.520;8.504;2023-11-19T08:07:57;12.00;99.90
13436;DHT22;6790;49.520;8.504;2023-11-19T08:10:23;12.00;99.90
13436;DHT22;6790;49.520;8.504;2023-11-19T08:12:49;12.40;99.90
13436;DHT22;6790;49.520;8.504;2023-11-19T08:15:15;12.50;99.90
13436;DHT22;6790;49.520;8.504;2023-11-19T08:17:41;12.40;99.90
13436;DHT22;6790;49.520;8.504;2023-11-19T08:20:08;12.50;99.90
13436;DHT22;6790;49.520;8.504;2023-11-19T08:22:38;12.50;99.90
13436;DHT22;6790;49.520;8.504;2023-11-19T08:25:07;12.20;99.90
13436;DHT22;6790;49.520;8.504;2023-11-19T08:27:33;12.70;99.90
13436;DHT22;6790;49.520;8.504;2023-11-19T08:29:59;12.60;99.90
13436;DHT22;6790;49.520;8.504;2023-11-19T08:32:26;13.00;99.90
13436;DHT22;6790;49.520;8.504;2023-11-19T08:34:52;12.80;99.90
13436;DHT22;6790;49.520;8.504;2023-11-19T08:37:18;12.60;99.90
13436;DHT22;6790;49.520;8.504;2023-11-19T08:39:46;12.50;99.90
13436;DHT22;6790;49.520;8.504;2023-11-19T08:42:12;12.50;99.90
13436;DHT22;6790;49.520;8.504;2023-11-19T08:44:38;12.40;99.90
13436;DHT22;6790;49.520;8.504;2023-11-19T08:47:04;12.40;99.90
13436;DHT22;6790;49.520;8.504;2023-11-19T08:49:30;12.70;99.90
13436;DHT22;6790;49.520;8.504;2023-11-19T08:51:56;12.40;99.90
13436;DHT22;6790;49.520;8.504;2023-11-19T08:54:21;12.70;99.90
13436;DHT22;6790;49.520;8.504;2023-11-19T08:56:48;12.70;99.90
13436;DHT22;6790;49.520;8.504;2023-11-19T08:59:14;12.90;99.90
13436;DHT22;6790;49.520;8.504;2023-11-19T09:01:40;12.80;99.90
13436;DHT22;6790;49.520;8.504;2023-11-19T09:04:06;12.60;99.90
13436;DHT22;6790;49.520;8.504;2023-11-19T09:06:32;12.60;99.90
13436;DHT22;6790;49.520;8.504;2023-11-19T09:08:58;12.80;99.90
13436;DHT22;6790;49.520;8.504;2023-11-19T09:11:28;12.90;99.90
13436;DHT22;6790;49.520;8.504;2023-11-19T09:13:54;13.00;99.90
13436;DHT22;6790;49.520;8.504;2023-11-19T09:16:19;13.10;99.90
13436;DHT22;6790;49.520;8.504;2023-11-19T09:18:45;13.20;99.90
13436;DHT22;6790;49.520;8.504;2023-11-19T09:21:13;13.40;99.90
13436;DHT22;6790;49.520;8.504;2023-11-19T09:23:39;13.50;99.90
13436;DHT22;6790;49.520;8.504;2023-11-19T09:26:06;13.40;99.90
13436;DHT22;6790;49.520;8.504;2023-11-19T09:28:33;13.60;99.90
13436;DHT22;6790;49.520;8.504;2023-11-19T09:30:59;13.60;99.90
13436;DHT22;6790;49.520;8.504;2023-11-19T09:33:25;13.70;99.90
13436;DHT22;6790;49.520;8.504;2023-11-19T09:35:51;13.70;99.90
13436;DHT22;6790;49.520;8.504;2023-11-19T09:38:17;13.80;99.90
13436;DHT22;6790;49.520;8.504;2023-11-19T09:40:43;13.90;99.90
13436;DHT22;6790;49.520;8.504;2023-11-19T09:43:09;13.80;99.90
13436;DHT22;6790;49.520;8.504;2023-11-19T09:45:51;13.80;99.90
13436;DHT22;6790;49.520;8.504;2023-11-19T09:48:17;13.80;99.90
13436;DHT22;6790;49.520;8.504;2023-11-19T09:50:48;13.80;99.90
13436;DHT22;6790;49.520;8.504;2023-11-19T09:53:14;13.90;99.90
13436;DHT22;6790;49.520;8.504;2023-11-19T09:55:41;13.90;99.90
13436;DHT22;6790;49.520;8.504;2023-11-19T09:58:07;13.90;99.90
13436;DHT22;6790;49.520;8.504;2023-11-19T10:00:34;13.90;99.90
13436;DHT22;6790;49.520;8.504;2023-11-19T10:03:00;13.90;99.90
13436;DHT22;6790;49.520;8.504;2023-11-19T10:05:26;13.80;99.90
13436;DHT22;6790;49.520;8.504;2023-11-19T10:07:52;13.90;99.90
13436;DHT22;6790;49.520;8.504;2023-11-19T10:10:20;13.80;99.90
13436;DHT22;6790;49.520;8.504;2023-11-19T10:12:46;13.70;99.90
13436;DHT22;6790;49.520;8.504;2023-11-19T10:15:21;13.80;99.90
13436;DHT22;6790;49.520;8.504;2023-11-19T10:17:47;13.90;99.90
13436;DHT22;6790;49.520;8.504;2023-11-19T10:20:14;13.90;99.90
13436;DHT22;6790;49.520;8.504;2023-11-19T10:22:39;14.00;99.90
13436;DHT22;6790;49.520;8.504;2023-11-19T10:27:51;14.20;99.90
13436;DHT22;6790;49.520;8.504;2023-11-19T10:30:21;14.30;99.90
13436;DHT22;6790;49.520;8.504;2023-11-19T10:33:10;14.40;99.90
13436;DHT22;6790;49.520;8.504;2023-11-19T10:35:53;14.40;99.90
13436;DHT22;6790;49.520;8.504;2023-11-19T10:38:20;14.40;99.90
13436;DHT22;6790;49.520;8.504;2023-11-19T10:40:47;14.60;99.90
13436;DHT22;6790;49.520;8.504;2023-11-19T10:43:14;14.80;99.90
13436;DHT22;6790;49.520;8.504;2023-11-19T10:45:40;14.90;99.90
13436;DHT22;6790;49.520;8.504;2023-11-19T10:48:06;15.10;99.90
13436;DHT22;6790;49.520;8.504;2023-11-19T10:50:37;15.20;99.90
13436;DHT22;6790;49.520;8.504;2023-11-19T10:53:04;15.10;99.90
13436;DHT22;6790;49.520;8.504;2023-11-19T10:55:38;15.30;99.90
13436;DHT22;6790;49.520;8.504;2023-11-19T10:58:10;15.20;99.90
13436;DHT22;6790;49.520;8.504;2023-11-19T11:05:46;14.80;99.90
13436;DHT22;6790;49.520;8.504;2023-11-19T11:08:13;14.60;99.90
13436;DHT22;6790;49.520;8.504;2023-11-19T11:10:53;14.60;99.90
13436;DHT22;6790;49.520;8.504;2023-11-19T11:13:26;14.50;99.90
13436;DHT22;6790;49.520;8.504;2023-11-19T11:15:56;14.50;99.90
13436;DHT22;6790;49.520;8.504;2023-11-19T11:18:26;14.40;99.90
13436;DHT22;6790;49.520;8.504;2023-11-19T11:20:55;14.40;99.90
13436;DHT22;6790;49.520;8.504;2023-11-19T11:27:17;14.20;99.90
13436;DHT22;6790;49.520;8.504;2023-11-19T11:36:11;14.20;99.90
13436;DHT22;6790;49.520;8.504;2023-11-19T11:38:41;14.20;99.90
13436;DHT22;6790;49.520;8.504;2023-11-19T11:43:48;14.30;99.90
13436;DHT22;6790;49.520;8.504;2023-11-19T11:49:02;14.30;99.90
13436;DHT22;6790;49.520;8.504;2023-11-19T11:57:10;14.50;99.90
13436;DHT22;6790;49.520;8.504;2023-11-19T11:59:45;14.50;99.90
13436;DHT22;6790;49.520;8.504;2023-11-19T12:02:15;14.50;99.90
13436;DHT22;6790;49.520;8.504;2023-11-19T12:04:42;14.60;99.90
13436;DHT22;6790;49.520;8.504;2023-11-19T12:07:14;14.70;99.90
13436;DHT22;6790;49.520;8.504;2023-11-19T12:09:55;14.70;99.90
13436;DHT22;6790;49.520;8.504;2023-11-19T12:12:33;14.70;99.90
13436;DHT22;6790;49.520;8.504;2023-11-19T12:17:37;14.80;99.90
13436;DHT22;6790;49.520;8.504;2023-11-19T12:20:06;14.80;99.90
13436;DHT22;6790;49.520;8.504;2023-11-19T12:22:41;14.90;99.90
13436;DHT22;6790;49.520;8.504;2023-11-19T12:25:09;14.80;99.90
13436;DHT22;6790;49.520;8.504;2023-11-19T12:27:43;14.80;99.90
13436;DHT22;6790;49.520;8.504;2023-11-19T12:30:10;14.90;99.90
13436;DHT22;6790;49.520;8.504;2023-11-19T12:32:44;14.80;99.90
13436;DHT22;6790;49.520;8.504;2023-11-19T12:35:12;14.80;99.90
13436;DHT22;6790;49.520;8.504;2023-11-19T12:37:50;14.70;99.90
13436;DHT22;6790;49.520;8.504;2023-11-19T12:42:47;14.80;99.90
13436;DHT22;6790;49.520;8.504;2023-11-19T12:45:14;14.80;99.90
13436;DHT22;6790;49.520;8.504;2023-11-19T12:47:42;14.80;99.90
13436;DHT22;6790;49.520;8.504;2023-11-19T12:50:09;14.70;99.90
13436;DHT22;6790;49.520;8.504;2023-11-19T12:52:39;14.60;99.90
13436;DHT22;6790;49.520;8.504;2023-11-19T12:55:23;14.60;99.90
13436;DHT22;6790;49.520;8.504;2023-11-19T12:57:51;14.60;99.90
13436;DHT22;6790;49.520;8.504;2023-11-19T13:00:21;14.60;99.90
13436;DHT22;6790;49.520;8.504;2023-11-19T13:02:50;14.50;99.90
13436;DHT22;6790;49.520;8.504;2023-11-19T13:05:35;14.40;99.90
13436;DHT22;6790;49.520;8.504;2023-11-19T13:08:08;14.30;99.90
13436;DHT22;6790;49.520;8.504;2023-11-19T13:10:50;14.20;99.90
13436;DHT22;6790;49.520;8.504;2023-11-19T13:13:17;14.20;99.90
13436;DHT22;6790;49.520;8.504;2023-11-19T13:15:43;14.10;99.90
13436;DHT22;6790;49.520;8.504;2023-11-19T13:18:11;14.00;99.90
13436;DHT22;6790;49.520;8.504;2023-11-19T13:20:38;14.20;99.90
13436;DHT22;6790;49.520;8.504;2023-11-19T13:23:05;14.20;99.90
13436;DHT22;6790;49.520;8.504;2023-11-19T13:25:32;14.20;99.90
13436;DHT22;6790;49.520;8.504;2023-11-19T13:27:58;14.10;99.90
13436;DHT22;6790;49.520;8.504;2023-11-19T13:30:25;14.00;99.90
13436;DHT22;6790;49.520;8.504;2023-11-19T13:32:52;13.90;99.90
13436;DHT22;6790;49.520;8.504;2023-11-19T13:35:18;13.90;99.90
13436;DHT22;6790;49.520;8.504;2023-11-19T13:37:45;14.00;99.90
13436;DHT22;6790;49.520;8.504;2023-11-19T13:40:11;14.10;99.90
13436;DHT22;6790;49.520;8.504;2023-11-19T13:42:44;14.20;99.90
13436;DHT22;6790;49.520;8.504;2023-11-19T13:45:13;14.50;99.90
13436;DHT22;6790;49.520;8.504;2023-11-19T13:47:45;14.60;99.90
13436;DHT22;6790;49.520;8.504;2023-11-19T13:50:13;14.80;99.90
13436;DHT22;6790;49.520;8.504;2023-11-19T13:52:41;14.70;99.90
13436;DHT22;6790;49.520;8.504;2023-11-19T13:55:10;14.70;99.90
13436;DHT22;6790;49.520;8.504;2023-11-19T13:57:36;14.80;99.90
13436;DHT22;6790;49.520;8.504;2023-11-19T14:00:04;14.70;99.90
13436;DHT22;6790;49.520;8.504;2023-11-19T14:02:32;14.50;99.90
13436;DHT22;6790;49.520;8.504;2023-11-19T14:04:58;14.50;99.90
13436;DHT22;6790;49.520;8.504;2023-11-19T14:07:24;14.60;99.90
13436;DHT22;6790;49.520;8.504;2023-11-19T14:09:50;14.50;99.90
13436;DHT22;6790;49.520;8.504;2023-11-19T14:12:16;14.50;99.90
13436;DHT22;6790;49.520;8.504;2023-11-19T14:14:42;14.60;99.90
13436;DHT22;6790;49.520;8.504;2023-11-19T14:17:09;14.50;99.90
13436;DHT22;6790;49.520;8.504;2023-11-19T14:19:36;14.50;99.90
13436;DHT22;6790;49.520;8.504;2023-11-19T14:22:03;14.50;99.90
13436;DHT22;6790;49.520;8.504;2023-11-19T14:24:29;14.40;99.90
13436;DHT22;6790;49.520;8.504;2023-11-19T14:26:55;14.40;99.90
13436;DHT22;6790;49.520;8.504;2023-11-19T14:29:24;14.50;99.90
13436;DHT22;6790;49.520;8.504;2023-11-19T14:31:51;14.50;99.90
13436;DHT22;6790;49.520;8.504;2023-11-19T14:34:19;14.60;99.90
13436;DHT22;6790;49.520;8.504;2023-11-19T14:36:45;14.60;99.90
13436;DHT22;6790;49.520;8.504;2023-11-19T14:39:11;14.50;99.90
13436;DHT22;6790;49.520;8.504;2023-11-19T14:41:37;14.50;99.90
13436;DHT22;6790;49.520;8.504;2023-11-19T14:44:02;14.50;99.90
13436;DHT22;6790;49.520;8.504;2023-11-19T14:46:29;14.50;99.90
13436;DHT22;6790;49.520;8.504;2023-11-19T14:48:55;14.40;99.90
13436;DHT22;6790;49.520;8.504;2023-11-19T14:51:20;14.40;99.90
13436;DHT22;6790;49.520;8.504;2023-11-19T14:53:46;14.40;99.90
13436;DHT22;6790;49.520;8.504;2023-11-19T14:56:12;14.30;99.90
13436;DHT22;6790;49.520;8.504;2023-11-19T14:58:39;14.30;99.90
13436;DHT22;6790;49.520;8.504;2023-11-19T15:01:05;14.20;99.90
13436;DHT22;6790;49.520;8.504;2023-11-19T15:03:33;14.10;99.90
13436;DHT22;6790;49.520;8.504;2023-11-19T15:05:58;14.10;99.90
13436;DHT22;6790;49.520;8.504;2023-11-19T15:08:25;14.10;99.90
13436;DHT22;6790;49.520;8.504;2023-11-19T15:10:50;14.00;99.90
13436;DHT22;6790;49.520;8.504;2023-11-19T15:13:16;13.80;99.90
13436;DHT22;6790;49.520;8.504;2023-11-19T15:15:42;13.80;99.90
13436;DHT22;6790;49.520;8.504;2023-11-19T15:18:08;13.80;99.90
13436;DHT22;6790;49.520;8.504;2023-11-19T15:20:35;13.60;99.90
13436;DHT22;6790;49.520;8.504;2023-11-19T15:23:01;13.60;99.90
13436;DHT22;6790;49.520;8.504;2023-11-19T15:25:27;13.60;99.90
13436;DHT22;6790;49.520;8.504;2023-11-19T15:27:52;13.60;99.90
13436;DHT22;6790;49.520;8.504;2023-11-19T15:30:18;13.50;99.90
13436;DHT22;6790;49.520;8.504;2023-11-19T15:32:44;13.50;99.90
13436;DHT22;6790;49.520;8.504;2023-11-19T15:35:10;13.40;99.90
13436;DHT22;6790;49.520;8.504;2023-11-19T15:37:36;13.40;99.90
13436;DHT22;6790;49.520;8.504;2023-11-19T15:40:07;13.40;99.90
13436;DHT22;6790;49.520;8.504;2023-11-19T15:42:36;13.40;99.90
13436;DHT22;6790;49.520;8.504;2023-11-19T15:45:02;13.40;99.90
13436;DHT22;6790;49.520;8.504;2023-11-19T15:47:30;13.40;99.90
13436;DHT22;6790;49.520;8.504;2023-11-19T15:49:56;13.30;99.90
13436;DHT22;6790;49.520;8.504;2023-11-19T15:52:22;13.40;99.90
13436;DHT22;6790;49.520;8.504;2023-11-19T15:54:47;13.40;99.90
13436;DHT22;6790;49.520;8.504;2023-11-19T15:57:13;13.30;99.90
13436;DHT22;6790;49.520;8.504;2023-11-19T15:59:39;13.40;99.90
13436;DHT22;6790;49.520;8.504;2023-11-19T16:02:05;13.20;99.90
13436;DHT22;6790;49.520;8.504;2023-11-19T16:04:30;13.30;99.90
13436;DHT22;6790;49.520;8.504;2023-11-19T16:06:56;13.20;99.90
13436;DHT22;6790;49.520;8.504;2023-11-19T16:09:22;13.20;99.90
13436;DHT22;6790;49.520;8.504;2023-11-19T16:11:48;13.10;99.90
13436;DHT22;6790;49.520;8.504;2023-11-19T16:14:14;13.10;99.90
13436;DHT22;6790;49.520;8.504;2023-11-19T16:16:40;13.10;99.90
13436;DHT22;6790;49.520;8.504;2023-11-19T16:19:06;13.30;99.90
13436;DHT22;6790;49.520;8.504;2023-11-19T16:21:33;13.40;99.90
13436;DHT22;6790;49.520;8.504;2023-11-19T16:24:02;13.40;99.90